createdAt,value
2017-12-08T00:00:25.986Z,60.30
2017-12-08T00:03:00.218Z,60.30
2017-12-08T00:05:34.480Z,60.30
2017-12-08T00:08:08.705Z,60.60
2017-12-08T00:10:43.435Z,60.70
2017-12-08T00:13:17.779Z,60.50
2017-12-08T00:15:52.768Z,61.60
2017-12-08T00:18:27.026Z,61.50
2017-12-08T00:21:01.632Z,61.80
2017-12-08T00:23:36.031Z,62.20
2017-12-08T00:26:10.727Z,62.50
2017-12-08T00:28:45.052Z,63.20
2017-12-08T00:31:19.830Z,63.00
2017-12-08T00:33:54.112Z,64.30
2017-12-08T00:36:28.760Z,64.20
2017-12-08T00:39:03.171Z,64.20
2017-12-08T00:41:38.482Z,64.70
2017-12-08T00:44:12.717Z,64.60
2017-12-08T00:46:47.254Z,64.60
2017-12-08T00:49:21.480Z,65.10
2017-12-08T00:51:55.910Z,65.60
2017-12-08T00:54:30.227Z,65.20
2017-12-08T00:57:04.877Z,65.80
2017-12-08T00:59:39.856Z,66.40
2017-12-08T01:02:14.668Z,66.40
2017-12-08T01:04:48.968Z,65.90
2017-12-08T01:07:23.650Z,66.60
2017-12-08T01:09:58.767Z,66.70
2017-12-08T01:20:32.991Z,67.40
2017-12-08T01:23:07.264Z,67.40
2017-12-08T01:25:41.496Z,67.70
2017-12-08T01:28:15.756Z,67.80
2017-12-08T01:30:50.777Z,66.90
2017-12-08T01:33:25.081Z,66.90
2017-12-08T01:35:59.484Z,67.80
2017-12-08T01:38:33.734Z,68.10
2017-12-08T01:41:08.660Z,69.00
2017-12-08T01:43:42.867Z,68.80
2017-12-08T01:46:17.220Z,68.00
2017-12-08T01:48:51.583Z,68.80
2017-12-08T01:51:25.805Z,69.10
2017-12-08T01:54:00.073Z,68.30
2017-12-08T01:56:34.277Z,68.50
2017-12-08T01:59:09.331Z,69.30
2017-12-08T02:01:43.664Z,69.20
2017-12-08T02:04:18.036Z,67.80
2017-12-08T02:06:52.252Z,67.90
2017-12-08T02:09:27.324Z,68.70
2017-12-08T02:12:01.680Z,68.70
2017-12-08T02:14:36.009Z,67.80
2017-12-08T02:17:10.314Z,69.80
2017-12-08T02:19:44.661Z,69.90
2017-12-08T02:22:19.582Z,68.80
2017-12-08T02:24:53.860Z,68.80
2017-12-08T02:27:28.093Z,69.50
2017-12-08T02:30:02.274Z,69.20
2017-12-08T02:32:36.636Z,69.50
2017-12-08T02:35:10.897Z,70.60
2017-12-08T02:37:45.944Z,70.70
2017-12-08T02:40:20.213Z,70.60
2017-12-08T02:42:54.469Z,70.80
2017-12-08T02:45:28.756Z,69.90
2017-12-08T02:48:03.062Z,69.00
2017-12-08T02:50:37.511Z,70.40
2017-12-08T02:53:11.808Z,71.10
2017-12-08T02:55:46.045Z,72.10
2017-12-08T02:58:21.054Z,71.50
2017-12-08T03:00:55.361Z,73.20
2017-12-08T03:03:29.588Z,72.00
2017-12-08T03:06:04.670Z,72.30
2017-12-08T03:08:38.980Z,72.20
2017-12-08T03:11:13.224Z,73.90
2017-12-08T03:13:47.449Z,72.70
2017-12-08T03:16:21.825Z,73.40
2017-12-08T03:18:56.852Z,72.50
2017-12-08T03:21:31.172Z,72.50
2017-12-08T03:24:05.441Z,72.30
2017-12-08T03:26:39.669Z,72.00
2017-12-08T03:29:13.946Z,72.30
2017-12-08T03:31:48.246Z,72.90
2017-12-08T03:34:22.581Z,72.40
2017-12-08T03:36:56.809Z,73.10
2017-12-08T03:39:31.805Z,71.80
2017-12-08T03:42:06.975Z,72.90
2017-12-08T03:44:41.259Z,72.90
2017-12-08T03:47:15.650Z,72.20
2017-12-08T03:49:49.823Z,73.50
2017-12-08T03:52:24.235Z,73.50
2017-12-08T03:54:58.480Z,73.10
2017-12-08T03:57:32.848Z,74.00
2017-12-08T04:00:07.268Z,72.80
2017-12-08T04:02:41.508Z,73.90
2017-12-08T04:05:15.669Z,73.70
2017-12-08T04:07:49.915Z,75.30
2017-12-08T04:10:24.829Z,74.30
2017-12-08T04:12:59.173Z,74.30
2017-12-08T04:15:33.330Z,74.60
2017-12-08T04:18:07.546Z,74.60
2017-12-08T04:20:41.907Z,74.10
2017-12-08T04:23:16.241Z,72.30
2017-12-08T04:25:50.438Z,73.10
2017-12-08T04:28:25.519Z,75.10
2017-12-08T04:30:59.796Z,74.80
2017-12-08T04:33:34.943Z,73.50
2017-12-08T04:36:09.276Z,73.40
2017-12-08T04:38:43.545Z,74.00
2017-12-08T04:41:17.824Z,74.40
2017-12-08T04:43:52.094Z,73.90
2017-12-08T04:46:27.233Z,74.20
2017-12-08T04:49:01.730Z,74.10
2017-12-08T04:51:35.912Z,73.30
2017-12-08T04:54:11.068Z,73.20
2017-12-08T04:56:45.574Z,73.20
2017-12-08T04:59:19.791Z,73.80
2017-12-08T05:01:54.785Z,74.70
2017-12-08T05:04:29.191Z,74.70
2017-12-08T05:07:03.608Z,74.00
2017-12-08T05:09:37.972Z,73.90
2017-12-08T05:12:12.251Z,73.70
2017-12-08T05:14:46.545Z,73.00
2017-12-08T05:17:21.520Z,73.10
2017-12-08T05:19:55.753Z,73.10
2017-12-08T05:22:29.957Z,73.30
2017-12-08T05:25:05.074Z,73.40
2017-12-08T05:27:39.377Z,73.20
2017-12-08T05:30:13.743Z,74.10
2017-12-08T05:32:47.929Z,73.60
2017-12-08T05:35:22.156Z,73.00
2017-12-08T05:37:56.553Z,72.90
2017-12-08T05:40:30.813Z,73.50
2017-12-08T05:43:05.040Z,73.70
2017-12-08T05:45:39.388Z,72.10
2017-12-08T05:48:14.352Z,69.80
2017-12-08T05:50:48.685Z,69.80
2017-12-08T05:53:22.902Z,69.60
2017-12-08T05:55:57.189Z,69.10
2017-12-08T05:58:31.426Z,68.60
2017-12-08T06:01:05.794Z,68.60
2017-12-08T06:03:40.059Z,68.20
2017-12-08T06:06:14.429Z,68.50
2017-12-08T06:08:48.606Z,68.20
2017-12-08T06:11:22.842Z,68.30
2017-12-08T06:13:57.745Z,68.00
2017-12-08T06:16:31.955Z,68.00
2017-12-08T06:19:06.170Z,68.00
2017-12-08T06:21:40.401Z,67.90
2017-12-08T06:24:14.805Z,68.00
2017-12-08T06:26:48.943Z,68.30
2017-12-08T06:29:23.239Z,68.00
2017-12-08T06:31:57.550Z,68.20
2017-12-08T06:34:32.499Z,68.10
2017-12-08T06:37:06.864Z,68.10
2017-12-08T06:39:41.211Z,68.40
2017-12-08T06:42:16.281Z,68.30
2017-12-08T06:44:50.605Z,68.30
2017-12-08T06:47:24.904Z,68.30
2017-12-08T06:49:59.164Z,68.50
2017-12-08T06:52:33.446Z,68.20
2017-12-08T06:55:07.752Z,68.30
2017-12-08T06:57:42.980Z,68.20
2017-12-08T07:00:17.233Z,68.20
2017-12-08T07:02:51.497Z,68.50
2017-12-08T07:05:26.478Z,68.70
2017-12-08T07:08:00.773Z,68.60
2017-12-08T07:10:34.978Z,68.60
2017-12-08T07:13:09.277Z,68.30
2017-12-08T07:15:43.487Z,68.40
2017-12-08T07:18:17.665Z,68.90
2017-12-08T07:20:51.978Z,68.50
2017-12-08T07:23:26.291Z,68.30
2017-12-08T07:26:00.454Z,68.50
2017-12-08T07:28:34.838Z,68.70
2017-12-08T07:31:09.082Z,68.60
2017-12-08T07:33:43.332Z,68.40
2017-12-08T07:36:17.486Z,68.70
2017-12-08T07:38:51.789Z,68.60
2017-12-08T07:41:26.834Z,68.70
2017-12-08T07:44:01.110Z,68.70
2017-12-08T07:46:36.188Z,68.60
2017-12-08T07:49:11.338Z,69.30
2017-12-08T07:51:45.709Z,68.80
2017-12-08T07:54:20.895Z,69.20
2017-12-08T07:56:55.092Z,68.50
2017-12-08T07:59:30.146Z,68.70
2017-12-08T08:02:04.307Z,68.60
2017-12-08T08:04:38.635Z,68.70
2017-12-08T08:07:12.969Z,68.80
2017-12-08T08:09:47.940Z,68.30
2017-12-08T08:12:23.015Z,68.30
2017-12-08T08:14:58.269Z,68.40
2017-12-08T08:17:32.586Z,68.40
2017-12-08T08:20:06.878Z,68.70
2017-12-08T08:22:41.947Z,68.60
2017-12-08T08:25:16.328Z,68.50
2017-12-08T08:27:50.642Z,68.90
2017-12-08T08:30:24.897Z,69.70
2017-12-08T08:32:59.112Z,68.80
2017-12-08T08:35:33.582Z,68.70
2017-12-08T08:38:08.666Z,68.90
2017-12-08T08:40:43.757Z,69.00
2017-12-08T08:43:18.088Z,68.90
2017-12-08T08:45:52.483Z,69.20
2017-12-08T08:48:26.871Z,69.20
2017-12-08T08:51:01.944Z,69.10
2017-12-08T08:53:37.046Z,68.70
2017-12-08T08:56:11.265Z,68.70
2017-12-08T08:58:45.606Z,68.70
2017-12-08T09:01:19.873Z,69.20
2017-12-08T09:03:54.047Z,69.60
2017-12-08T09:06:28.345Z,69.00
2017-12-08T09:09:02.739Z,68.60
2017-12-08T09:11:37.084Z,68.70
2017-12-08T09:14:11.413Z,68.60
2017-12-08T09:16:45.943Z,68.40
2017-12-08T09:19:20.148Z,68.50
2017-12-08T09:21:54.461Z,68.30
2017-12-08T09:24:28.658Z,68.30
2017-12-08T09:27:03.034Z,68.50
2017-12-08T09:29:37.375Z,68.30
2017-12-08T09:32:11.851Z,68.10
2017-12-08T09:34:46.246Z,67.80
2017-12-08T09:37:20.474Z,67.80
2017-12-08T09:39:54.780Z,67.30
2017-12-08T09:42:29.187Z,67.50
2017-12-08T09:45:04.338Z,67.10
2017-12-08T09:47:39.350Z,67.20
2017-12-08T09:50:13.601Z,67.20
2017-12-08T09:52:48.017Z,67.00
2017-12-08T09:55:22.194Z,66.60
2017-12-08T09:57:56.462Z,66.50
2017-12-08T10:00:30.680Z,66.30
2017-12-08T10:03:04.961Z,65.90
2017-12-08T10:05:39.268Z,65.40
2017-12-08T10:08:14.314Z,64.30
2017-12-08T10:10:48.545Z,64.20
2017-12-08T10:13:22.873Z,63.50
2017-12-08T10:15:57.072Z,63.30
2017-12-08T10:18:31.372Z,63.40
2017-12-08T10:21:05.675Z,62.30
2017-12-08T10:23:40.798Z,62.80
2017-12-08T10:26:15.896Z,63.00
2017-12-08T10:28:50.195Z,62.90
2017-12-08T10:31:24.491Z,62.10
2017-12-08T10:33:58.743Z,61.90
2017-12-08T10:36:33.062Z,62.10
2017-12-08T10:39:08.030Z,61.80
2017-12-08T10:41:42.288Z,61.80
2017-12-08T10:44:16.641Z,61.40
2017-12-08T10:46:50.890Z,61.80
2017-12-08T10:49:25.330Z,60.30
2017-12-08T10:51:59.687Z,60.50
2017-12-08T10:54:33.955Z,61.70
2017-12-08T10:57:08.200Z,59.50
2017-12-08T10:59:42.537Z,60.30
2017-12-08T11:02:16.744Z,59.70
2017-12-08T11:04:50.968Z,59.90
2017-12-08T11:07:25.897Z,60.50
2017-12-08T11:10:00.226Z,60.50
2017-12-08T11:12:34.423Z,59.30
2017-12-08T11:15:08.767Z,58.50
2017-12-08T11:17:43.677Z,61.00
2017-12-08T11:20:18.077Z,61.00
2017-12-08T11:22:52.390Z,60.40
2017-12-08T11:25:26.666Z,59.70
2017-12-08T11:28:01.666Z,60.10
2017-12-08T11:30:36.095Z,60.10
2017-12-08T11:33:10.430Z,58.70
2017-12-08T11:35:45.511Z,56.10
2017-12-08T11:38:20.473Z,54.30
2017-12-08T11:40:55.975Z,53.90
2017-12-08T11:43:30.332Z,54.70
2017-12-08T11:46:04.598Z,55.70
2017-12-08T11:48:38.867Z,54.00
2017-12-08T11:51:13.100Z,55.80
2017-12-08T11:53:47.312Z,54.20
2017-12-08T11:56:21.708Z,54.10
2017-12-08T11:58:56.843Z,55.60
2017-12-08T12:01:31.278Z,55.50
2017-12-08T12:04:05.672Z,54.90
2017-12-08T12:06:39.961Z,53.00
2017-12-08T12:09:15.057Z,54.50
2017-12-08T12:11:49.298Z,54.50
2017-12-08T12:14:24.352Z,55.40
2017-12-08T12:16:58.537Z,55.30
2017-12-08T12:19:32.922Z,55.70
2017-12-08T12:22:07.341Z,54.80
2017-12-08T12:24:42.427Z,52.20
2017-12-08T12:27:16.837Z,52.10
2017-12-08T12:29:51.970Z,54.00
2017-12-08T12:32:26.246Z,54.00
2017-12-08T12:35:00.553Z,49.80
2017-12-08T12:37:34.818Z,51.40
2017-12-08T12:40:09.094Z,50.10
2017-12-08T12:42:44.110Z,52.80
2017-12-08T12:45:18.469Z,53.50
2017-12-08T12:47:52.749Z,52.90
2017-12-08T12:50:27.056Z,53.70
2017-12-08T12:53:01.331Z,54.20
2017-12-08T12:55:35.582Z,56.80
2017-12-08T12:58:09.893Z,57.40
2017-12-08T13:00:44.933Z,56.70
2017-12-08T13:03:20.345Z,55.90
2017-12-08T13:05:54.644Z,56.40
2017-12-08T13:08:28.957Z,48.30
2017-12-08T13:11:03.321Z,53.30
2017-12-08T13:13:38.373Z,50.40
2017-12-08T13:16:12.631Z,50.20
2017-12-08T13:18:46.867Z,51.70
2017-12-08T13:21:21.042Z,48.50
2017-12-08T13:23:55.266Z,49.90
2017-12-08T13:26:29.628Z,49.50
2017-12-08T13:29:04.051Z,49.20
2017-12-08T13:31:38.185Z,51.60
2017-12-08T13:34:12.521Z,50.60
2017-12-08T13:36:47.507Z,50.80
2017-12-08T13:39:21.920Z,50.70
2017-12-08T13:41:56.190Z,49.90
2017-12-08T13:44:31.238Z,48.50
2017-12-08T13:47:05.592Z,48.50
2017-12-08T13:49:39.892Z,50.50
2017-12-08T13:52:14.163Z,51.70
2017-12-08T13:57:30.009Z,49.80
2017-12-08T14:00:04.975Z,50.30
2017-12-08T14:02:39.456Z,50.10
2017-12-08T14:05:14.394Z,51.50
2017-12-08T14:07:49.313Z,51.80
2017-12-08T14:10:23.647Z,51.80
2017-12-08T14:12:57.980Z,53.70
2017-12-08T14:15:32.178Z,54.80
2017-12-08T14:18:06.358Z,55.20
2017-12-08T14:20:40.617Z,55.70
2017-12-08T14:23:15.561Z,56.00
2017-12-08T14:25:49.927Z,55.90
2017-12-08T14:28:25.831Z,57.40
2017-12-08T14:31:00.120Z,57.80
2017-12-08T14:33:34.479Z,58.30
2017-12-08T14:36:08.958Z,58.00
2017-12-08T14:38:43.309Z,58.50
2017-12-08T14:41:17.657Z,58.70
2017-12-08T14:43:51.991Z,59.20
2017-12-08T14:46:26.356Z,59.50
2017-12-08T14:49:01.396Z,58.60
2017-12-08T14:51:36.375Z,59.10
2017-12-08T14:54:10.709Z,59.10
2017-12-08T14:56:45.030Z,59.60
2017-12-08T14:59:19.332Z,59.60
2017-12-08T15:01:53.717Z,59.30
2017-12-08T15:04:27.989Z,59.50
2017-12-08T15:07:02.193Z,59.50
2017-12-08T15:09:36.431Z,59.60
2017-12-08T15:12:11.419Z,60.30
2017-12-08T15:14:46.561Z,59.80
2017-12-08T15:17:20.918Z,59.80
2017-12-08T15:19:55.147Z,59.90
2017-12-08T15:22:29.349Z,60.40
2017-12-08T15:25:03.490Z,59.80
2017-12-08T15:27:37.687Z,61.50
2017-12-08T15:30:12.024Z,60.30
2017-12-08T15:32:47.231Z,60.60
2017-12-08T15:35:21.441Z,60.70
2017-12-08T15:37:55.686Z,61.20
2017-12-08T15:40:29.849Z,60.50
2017-12-08T15:43:04.116Z,60.90
2017-12-08T15:45:38.368Z,60.50
2017-12-08T15:48:12.722Z,60.50
2017-12-08T15:50:46.932Z,61.00
2017-12-08T15:53:21.214Z,60.80
2017-12-08T15:55:55.448Z,61.90
2017-12-08T15:58:29.797Z,61.40
2017-12-08T16:01:04.812Z,61.00
2017-12-08T16:03:39.100Z,61.10
2017-12-08T16:06:13.365Z,61.40
2017-12-08T16:08:47.732Z,61.50
2017-12-08T16:11:22.764Z,62.10
2017-12-08T16:13:57.070Z,62.10
2017-12-08T16:16:31.273Z,61.30
2017-12-08T16:19:05.634Z,61.40
2017-12-08T16:21:39.876Z,60.70
2017-12-08T16:24:14.127Z,62.30
2017-12-08T16:26:49.190Z,61.80
2017-12-08T16:29:23.581Z,61.70
2017-12-08T16:31:58.539Z,61.70
2017-12-08T16:34:33.499Z,61.70
2017-12-08T16:37:07.677Z,61.60
2017-12-08T16:39:41.876Z,61.40
2017-12-08T16:42:15.989Z,60.90
2017-12-08T16:44:50.432Z,61.40
2017-12-08T16:47:25.366Z,62.00
2017-12-08T16:49:59.605Z,61.20
2017-12-08T16:52:33.901Z,61.70
2017-12-08T16:55:08.290Z,60.90
2017-12-08T16:57:42.518Z,62.00
2017-12-08T17:00:17.504Z,62.20
2017-12-08T17:02:51.680Z,62.20
2017-12-08T17:05:26.078Z,62.40
2017-12-08T17:08:00.480Z,62.80
2017-12-08T17:10:34.795Z,62.40
2017-12-08T17:13:08.923Z,62.30
2017-12-08T17:15:43.317Z,62.40
2017-12-08T17:18:18.267Z,62.00
2017-12-08T17:20:52.609Z,61.90
2017-12-08T17:23:27.544Z,62.50
2017-12-08T17:26:01.849Z,62.50
2017-12-08T17:28:36.403Z,62.60
2017-12-08T17:31:10.855Z,62.30
2017-12-08T17:33:45.161Z,62.90
2017-12-08T17:36:20.256Z,63.40
2017-12-08T17:38:54.429Z,63.40
2017-12-08T17:41:29.598Z,63.20
2017-12-08T17:44:04.533Z,63.30
2017-12-08T17:46:38.842Z,63.30
2017-12-08T17:49:13.029Z,63.60
2017-12-08T17:51:47.357Z,64.10
2017-12-08T17:54:21.661Z,64.60
2017-12-08T17:56:55.965Z,63.90
2017-12-08T17:59:30.260Z,64.50
2017-12-08T18:02:04.556Z,64.20
2017-12-08T18:04:38.776Z,64.30
2017-12-08T18:07:12.940Z,63.80
2017-12-08T18:09:47.358Z,64.20
2017-12-08T18:12:21.616Z,63.70
2017-12-08T18:14:56.701Z,64.60
2017-12-08T18:17:31.649Z,64.30
2017-12-08T18:20:05.989Z,64.30
2017-12-08T18:22:40.309Z,63.70
2017-12-08T18:25:14.476Z,64.00
2017-12-08T18:27:48.733Z,64.30
2017-12-08T18:30:22.932Z,63.90
2017-12-08T18:32:57.227Z,63.70
2017-12-08T18:35:32.253Z,63.80
2017-12-08T18:38:06.463Z,63.80
2017-12-08T18:40:40.722Z,63.90
2017-12-08T18:43:14.925Z,63.60
2017-12-08T18:45:49.329Z,63.80
2017-12-08T18:48:23.521Z,64.50
2017-12-08T18:50:57.837Z,64.30
2017-12-08T18:53:32.159Z,64.10
2017-12-08T18:56:07.282Z,64.20
2017-12-08T18:58:41.615Z,64.10
2017-12-08T19:01:15.893Z,64.60
2017-12-08T19:03:50.959Z,65.40
2017-12-08T19:06:25.150Z,65.40
2017-12-08T19:08:59.449Z,65.10
2017-12-08T19:11:34.569Z,63.70
2017-12-08T19:14:08.785Z,64.20
2017-12-08T19:16:42.961Z,63.80
2017-12-08T19:19:17.378Z,64.60
2017-12-08T19:21:51.606Z,64.20
2017-12-08T19:24:25.759Z,64.50
2017-12-08T19:27:00.026Z,64.90
2017-12-08T19:29:34.342Z,65.10
2017-12-08T19:32:08.651Z,64.80
2017-12-08T19:34:42.841Z,65.20
2017-12-08T19:37:17.048Z,65.40
2017-12-08T19:39:51.291Z,64.70
2017-12-08T19:42:25.458Z,65.50
2017-12-08T19:44:59.708Z,65.00
2017-12-08T19:47:33.960Z,65.20
2017-12-08T19:50:08.338Z,65.60
2017-12-08T19:52:43.330Z,65.80
2017-12-08T19:55:17.617Z,65.80
2017-12-08T19:57:52.537Z,65.80
2017-12-08T20:00:27.752Z,66.00
2017-12-08T20:03:01.994Z,66.00
2017-12-08T20:05:36.213Z,66.20
2017-12-08T20:08:11.179Z,65.70
2017-12-08T20:10:45.540Z,65.70
2017-12-08T20:13:20.573Z,65.00
2017-12-08T20:15:54.749Z,65.00
2017-12-08T20:18:29.551Z,65.50
2017-12-08T20:21:04.631Z,64.80
2017-12-08T20:23:39.017Z,64.80
2017-12-08T20:26:13.234Z,65.50
2017-12-08T20:28:42.155Z,65.40
2017-12-08T20:31:10.192Z,65.20
2017-12-08T20:33:38.990Z,64.50
2017-12-08T20:36:07.795Z,65.00
2017-12-08T20:38:35.844Z,65.00
2017-12-08T20:41:04.682Z,64.40
2017-12-08T20:43:32.669Z,65.10
2017-12-08T20:46:00.793Z,64.60
2017-12-08T20:48:35.054Z,64.60
2017-12-08T20:51:03.173Z,64.50
2017-12-08T20:53:31.948Z,64.60
2017-12-08T20:56:00.791Z,65.00
2017-12-08T20:58:29.543Z,64.80
2017-12-08T21:00:57.557Z,64.70
2017-12-08T21:03:25.626Z,65.00
2017-12-08T21:05:53.638Z,64.70
2017-12-08T21:08:21.947Z,64.60
2017-12-08T21:10:50.200Z,64.70
2017-12-08T21:13:19.263Z,65.10
2017-12-08T21:15:47.637Z,65.00
2017-12-08T21:18:15.941Z,65.00
2017-12-08T21:20:45.028Z,65.00
2017-12-08T21:23:14.103Z,65.00
2017-12-08T21:25:42.474Z,64.90
2017-12-08T21:28:10.765Z,64.90
2017-12-08T21:30:39.774Z,64.40
2017-12-08T21:33:08.843Z,65.10
2017-12-08T21:35:37.110Z,65.10
2017-12-08T21:38:05.398Z,64.70
2017-12-08T21:40:33.651Z,64.50
2017-12-08T21:43:01.928Z,64.80
2017-12-08T21:45:30.324Z,64.50
2017-12-08T21:48:04.553Z,64.60
2017-12-08T21:50:32.852Z,64.50
2017-12-08T21:53:01.921Z,64.80
2017-12-08T21:55:30.244Z,64.80
2017-12-08T21:57:58.554Z,65.30
2017-12-08T22:00:26.925Z,64.80
2017-12-08T22:02:55.222Z,64.60
2017-12-08T22:05:23.514Z,64.70
2017-12-08T22:07:51.893Z,65.00
2017-12-08T22:10:20.410Z,65.20
2017-12-08T22:12:48.713Z,64.10
2017-12-08T22:15:17.032Z,63.90
2017-12-08T22:17:46.112Z,64.70
2017-12-08T22:20:14.408Z,64.00
2017-12-08T22:22:42.781Z,63.90
2017-12-08T22:25:11.080Z,64.10
2017-12-08T22:27:40.116Z,64.00
2017-12-08T22:30:08.428Z,63.90
2017-12-08T22:32:36.714Z,63.30
2017-12-08T22:35:05.075Z,63.90
2017-12-08T22:37:33.362Z,63.60
2017-12-08T22:40:01.676Z,63.20
2017-12-08T22:42:29.985Z,64.20
2017-12-08T22:44:58.356Z,63.60
2017-12-08T22:47:26.624Z,63.30
2017-12-08T22:49:54.909Z,63.40
2017-12-08T22:52:23.253Z,63.70
2017-12-08T22:54:51.572Z,64.60
2017-12-08T22:57:19.864Z,63.80
2017-12-08T22:59:48.168Z,63.80
2017-12-08T23:02:17.211Z,63.70
2017-12-08T23:04:45.521Z,63.70
2017-12-08T23:07:13.831Z,63.70
2017-12-08T23:09:42.916Z,63.90
2017-12-08T23:12:11.993Z,63.90
2017-12-08T23:14:40.390Z,63.90
2017-12-08T23:17:09.463Z,63.90
2017-12-08T23:19:37.780Z,63.80
2017-12-08T23:22:06.065Z,64.00
2017-12-08T23:24:34.407Z,63.80
2017-12-08T23:27:02.735Z,64.10
2017-12-08T23:29:30.999Z,64.00
2017-12-08T23:31:59.318Z,64.20
2017-12-08T23:34:27.589Z,64.00
2017-12-08T23:36:56.077Z,63.60
2017-12-08T23:39:31.144Z,63.80
2017-12-08T23:42:00.148Z,63.70
2017-12-08T23:44:28.442Z,63.60
2017-12-08T23:46:56.723Z,64.10
2017-12-08T23:49:25.040Z,64.10
2017-12-08T23:51:53.374Z,64.30
2017-12-08T23:54:21.626Z,64.00
2017-12-08T23:56:49.993Z,63.50
2017-12-08T23:59:19.009Z,64.10
